createdAt,value
2023-02-19T00:02:15.408Z,101598.91
2023-02-19T00:04:45.849Z,101591.09
2023-02-19T00:07:15.118Z,101592.84
2023-02-19T00:09:45.196Z,101591.97
2023-02-19T00:12:12.223Z,101598.91
2023-02-19T00:14:39.209Z,101593.66
2023-02-19T00:17:06.136Z,101581.50
2023-02-19T00:19:33.173Z,101586.69
2023-02-19T00:22:00.092Z,101581.47
2023-02-19T00:24:27.032Z,101581.47
2023-02-19T00:26:54.013Z,101578.00
2023-02-19T00:29:21.618Z,101580.56
2023-02-19T00:31:49.204Z,101573.59
2023-02-19T00:34:16.711Z,101576.22
2023-02-19T00:36:44.062Z,101564.03
2023-02-19T00:39:13.990Z,101571.88
2023-02-19T00:41:41.120Z,101572.72
2023-02-19T00:44:08.591Z,101565.75
2023-02-19T00:46:37.631Z,101564.88
2023-02-19T00:49:05.659Z,101557.06
2023-02-19T00:51:34.081Z,101562.31
2023-02-19T00:54:01.176Z,101557.97
2023-02-19T00:56:28.820Z,101563.16
2023-02-19T00:58:57.499Z,101555.38
2023-02-19T01:01:24.085Z,101560.56
2023-02-19T01:03:51.600Z,101562.28
2023-02-19T01:06:20.174Z,101557.06
2023-02-19T01:08:47.546Z,101562.28
2023-02-19T01:11:15.024Z,101560.56
2023-02-19T01:13:42.583Z,101560.56
2023-02-19T01:16:13.673Z,101557.97
2023-02-19T01:18:43.510Z,101558.78
2023-02-19T01:21:14.286Z,101556.22
2023-02-19T01:23:42.950Z,101555.34
2023-02-19T01:26:12.666Z,101558.81
2023-02-19T01:28:39.874Z,101563.16
2023-02-19T01:31:08.517Z,101558.75
2023-02-19T01:33:35.867Z,101560.50
2023-02-19T01:36:03.833Z,101547.47
2023-02-19T01:38:30.710Z,101561.38
2023-02-19T01:40:59.350Z,101555.28
2023-02-19T01:43:26.706Z,101560.53
2023-02-19T01:45:53.698Z,101562.31
2023-02-19T01:48:23.800Z,101564.88
2023-02-19T01:50:55.926Z,101562.31
2023-02-19T01:53:25.188Z,101560.47
2023-02-19T01:55:55.707Z,101553.47
2023-02-19T01:58:24.677Z,101563.97
2023-02-19T02:00:52.206Z,101563.13
2023-02-19T02:03:20.787Z,101560.50
2023-02-19T02:05:54.851Z,101570.94
2023-02-19T02:08:40.460Z,101563.13
2023-02-19T02:11:07.747Z,101565.75
2023-02-19T02:13:35.157Z,101560.56
2023-02-19T02:16:14.896Z,101567.53
2023-02-19T02:18:45.886Z,101572.72
2023-02-19T02:21:14.239Z,101571.84
2023-02-19T02:24:00.247Z,101562.28
2023-02-19T02:26:46.674Z,101567.56
2023-02-19T02:29:32.196Z,101571.88
2023-02-19T02:32:03.353Z,101567.50
2023-02-19T02:34:38.247Z,101573.59
2023-02-19T02:37:08.186Z,101572.72
2023-02-19T02:39:36.641Z,101570.97
2023-02-19T02:42:29.853Z,101564.88
2023-02-19T02:45:16.424Z,101568.34
2023-02-19T02:47:50.654Z,101576.19
2023-02-19T02:50:21.021Z,101564.00
2023-02-19T02:53:11.564Z,101562.28
2023-02-19T02:55:43.344Z,101576.19
2023-02-19T02:58:12.048Z,101579.66
2023-02-19T03:01:00.275Z,101572.72
2023-02-19T03:03:29.847Z,101572.75
2023-02-19T03:05:59.044Z,101577.03
2023-02-19T03:08:29.190Z,101583.19
2023-02-19T03:11:23.957Z,101575.31
2023-02-19T03:14:33.622Z,101587.50
2023-02-19T03:17:24.917Z,101586.66
2023-02-19T03:19:54.793Z,101588.38
2023-02-19T03:22:25.353Z,101597.09
2023-02-19T03:25:13.638Z,101597.91
2023-02-19T03:27:42.885Z,101590.09
2023-02-19T03:30:16.608Z,101604.00
2023-02-19T03:33:10.177Z,101601.38
2023-02-19T03:35:42.709Z,101614.44
2023-02-19T03:38:09.587Z,101602.28
2023-02-19T03:40:44.195Z,101610.97
2023-02-19T03:43:18.154Z,101616.16
2023-02-19T03:45:53.315Z,101609.22
2023-02-19T03:48:27.544Z,101607.47
2023-02-19T03:51:14.500Z,101615.28
2023-02-19T03:53:44.325Z,101626.56
2023-02-19T03:56:16.317Z,101623.06
2023-02-19T03:58:50.199Z,101629.16
2023-02-19T04:01:32.956Z,101631.66
2023-02-19T04:04:15.953Z,101635.13
2023-02-19T04:06:47.639Z,101635.09
2023-02-19T04:09:19.439Z,101634.25
2023-02-19T04:11:47.200Z,101634.22
2023-02-19T04:14:37.559Z,101650.75
2023-02-19T04:17:07.761Z,101654.22
2023-02-19T04:19:37.567Z,101662.91
2023-02-19T04:22:06.577Z,101666.34
2023-02-19T04:24:47.592Z,101668.13
2023-02-19T04:27:14.583Z,101672.38
2023-02-19T04:29:41.242Z,101673.28
2023-02-19T04:32:09.706Z,101671.59
2023-02-19T04:34:36.415Z,101679.38
2023-02-19T04:37:03.287Z,101687.13
2023-02-19T04:39:30.652Z,101686.19
2023-02-19T04:41:59.668Z,101687.06
2023-02-19T04:44:26.894Z,101688.78
2023-02-19T04:46:54.127Z,101688.88
2023-02-19T04:49:21.264Z,101694.03
2023-02-19T04:51:48.621Z,101697.50
2023-02-19T04:54:15.614Z,101694.00
2023-02-19T04:56:42.218Z,101701.78
2023-02-19T04:59:08.784Z,101700.09
2023-02-19T05:01:35.898Z,101701.78
2023-02-19T05:04:05.604Z,101704.38
2023-02-19T05:06:32.813Z,101706.13
2023-02-19T05:08:59.806Z,101709.63
2023-02-19T05:11:27.216Z,101714.81
2023-02-19T05:13:55.164Z,101726.13
2023-02-19T05:16:22.409Z,101718.34
2023-02-19T05:18:49.149Z,101728.81
2023-02-19T05:21:16.474Z,101727.88
2023-02-19T05:23:43.654Z,101732.22
2023-02-19T05:26:15.035Z,101735.81
2023-02-19T05:28:41.875Z,101744.44
2023-02-19T05:31:09.380Z,101748.78
2023-02-19T05:33:38.024Z,101746.19
2023-02-19T05:36:11.582Z,101747.88
2023-02-19T05:38:38.942Z,101752.22
2023-02-19T05:41:07.123Z,101755.69
2023-02-19T05:43:34.129Z,101763.50
2023-02-19T05:46:01.011Z,101765.19
2023-02-19T05:48:28.171Z,101764.34
2023-02-19T05:50:55.162Z,101757.38
2023-02-19T05:53:22.257Z,101765.09
2023-02-19T05:55:48.982Z,101759.81
2023-02-19T05:58:16.123Z,101770.28
2023-02-19T06:00:43.220Z,101775.44
2023-02-19T06:03:13.560Z,101770.28
2023-02-19T06:05:40.331Z,101774.56
2023-02-19T06:08:08.082Z,101766.72
2023-02-19T06:10:34.879Z,101773.72
2023-02-19T06:13:01.677Z,101770.16
2023-02-19T06:15:28.218Z,101770.09
2023-02-19T06:17:55.712Z,101776.16
2023-02-19T06:20:26.408Z,101779.59
2023-02-19T06:22:53.897Z,101784.81
2023-02-19T06:25:20.801Z,101781.31
2023-02-19T06:27:47.866Z,101797.84
2023-02-19T06:30:14.651Z,101803.09
2023-02-19T06:32:42.009Z,101799.56
2023-02-19T06:35:08.615Z,101806.38
2023-02-19T06:37:35.824Z,101818.56
2023-02-19T06:40:03.442Z,101808.09
2023-02-19T06:42:33.440Z,101813.34
2023-02-19T06:45:00.199Z,101810.66
2023-02-19T06:47:27.133Z,101810.66
2023-02-19T06:49:53.952Z,101815.09
2023-02-19T06:52:21.533Z,101821.97
2023-02-19T06:54:49.025Z,101828.94
2023-02-19T06:57:16.161Z,101832.41
2023-02-19T06:59:43.674Z,101836.88
2023-02-19T07:02:11.799Z,101846.41
2023-02-19T07:04:38.916Z,101849.94
2023-02-19T07:07:05.975Z,101846.41
2023-02-19T07:09:33.208Z,101858.59
2023-02-19T07:11:59.811Z,101856.75
2023-02-19T07:14:27.493Z,101864.66
2023-02-19T07:16:54.566Z,101868.84
2023-02-19T07:19:22.509Z,101867.22
2023-02-19T07:21:49.159Z,101874.06
2023-02-19T07:24:16.113Z,101878.56
2023-02-19T07:26:43.320Z,101883.81
2023-02-19T07:29:11.642Z,101905.41
2023-02-19T07:31:38.334Z,101908.84
2023-02-19T07:34:09.205Z,101905.41
2023-02-19T07:36:36.332Z,101912.38
2023-02-19T07:39:03.372Z,101910.88
2023-02-19T07:41:31.231Z,101909.06
2023-02-19T07:43:58.776Z,101919.44
2023-02-19T07:46:26.318Z,101924.66
2023-02-19T07:48:53.536Z,101935.22
2023-02-19T07:51:21.071Z,101929.91
2023-02-19T07:53:50.894Z,101935.16
2023-02-19T07:56:19.124Z,101938.63
2023-02-19T07:58:48.752Z,101929.03
2023-02-19T08:01:16.816Z,101947.41
2023-02-19T08:03:44.158Z,101948.28
2023-02-19T08:06:13.963Z,101947.50
2023-02-19T08:08:40.765Z,101954.44
2023-02-19T08:11:28.612Z,101964.94
2023-02-19T08:13:55.423Z,101963.22
2023-02-19T08:16:36.824Z,101958.09
2023-02-19T08:19:09.251Z,101959.81
2023-02-19T08:21:36.224Z,101954.53
2023-02-19T08:24:03.483Z,101960.63
2023-02-19T08:26:30.888Z,101970.25
2023-02-19T08:28:59.223Z,101978.91
2023-02-19T08:31:27.087Z,101975.44
2023-02-19T08:33:54.864Z,101972.88
2023-02-19T08:36:21.677Z,101966.75
2023-02-19T08:38:48.386Z,101984.19
2023-02-19T08:41:15.849Z,101978.06
2023-02-19T08:47:15.032Z,101982.53
2023-02-19T08:49:41.789Z,101986.09
2023-02-19T08:52:09.960Z,101987.91
2023-02-19T08:54:38.034Z,101988.00
2023-02-19T08:57:06.483Z,101997.63
2023-02-19T08:59:35.880Z,101991.53
2023-02-19T09:02:02.985Z,101989.00
2023-02-19T09:04:33.241Z,101981.28
2023-02-19T09:07:01.113Z,101996.16
2023-02-19T09:09:29.932Z,102010.06
2023-02-19T09:12:02.613Z,102012.66
2023-02-19T09:14:32.638Z,102016.16
2023-02-19T09:17:03.296Z,102016.22
2023-02-19T09:19:31.986Z,102023.28
2023-02-19T09:21:59.838Z,102022.25
2023-02-19T09:24:29.993Z,102034.34
2023-02-19T09:26:57.534Z,102038.75
2023-02-19T09:32:49.334Z,102045.69
2023-02-19T09:35:16.048Z,102045.69
2023-02-19T09:37:43.257Z,102043.72
2023-02-19T09:40:10.634Z,102041.16
2023-02-19T09:42:42.755Z,102038.47
2023-02-19T09:45:15.893Z,102043.88
2023-02-19T09:47:44.610Z,102043.72
2023-02-19T09:50:15.472Z,102054.03
2023-02-19T09:52:50.259Z,102061.03
2023-02-19T09:55:37.869Z,102061.09
2023-02-19T09:58:26.840Z,102056.75
2023-02-19T10:00:55.443Z,102077.84
2023-02-19T10:03:36.117Z,102090.94
2023-02-19T10:06:21.812Z,102088.34
2023-02-19T10:08:56.573Z,102104.81
2023-02-19T10:11:25.757Z,102108.28
2023-02-19T10:14:09.254Z,102120.53
2023-02-19T10:16:40.704Z,102115.50
2023-02-19T10:19:11.182Z,102099.72
2023-02-19T10:21:39.948Z,102103.16
2023-02-19T10:24:16.804Z,102125.84
2023-02-19T10:26:49.712Z,102131.06
2023-02-19T10:29:16.578Z,102126.72
2023-02-19T10:31:43.815Z,102133.72
2023-02-19T10:34:19.240Z,102142.56
2023-02-19T10:36:48.375Z,102142.75
2023-02-19T10:39:21.839Z,102141.97
2023-02-19T10:41:50.549Z,102141.94
2023-02-19T10:44:28.519Z,102145.69
2023-02-19T10:46:59.198Z,102152.75
2023-02-19T10:49:28.537Z,102157.09
2023-02-19T10:51:56.167Z,102159.81
2023-02-19T10:54:29.822Z,102153.09
2023-02-19T10:57:14.680Z,102162.34
2023-02-19T10:59:52.535Z,102155.22
2023-02-19T11:02:20.464Z,102155.25
2023-02-19T11:05:06.802Z,102173.59
2023-02-19T11:07:33.652Z,102173.72
2023-02-19T11:10:02.578Z,102184.09
2023-02-19T11:12:31.406Z,102186.47
2023-02-19T11:15:13.365Z,102181.63
2023-02-19T11:17:40.393Z,102180.03
2023-02-19T11:20:17.119Z,102173.09
2023-02-19T11:22:49.137Z,102180.06
2023-02-19T11:25:17.167Z,102187.16
2023-02-19T11:27:56.054Z,102185.72
2023-02-19T11:30:36.384Z,102173.31
2023-02-19T11:33:15.838Z,102163.06
2023-02-19T11:35:45.939Z,102170.84
2023-02-19T11:38:14.101Z,102168.25
2023-02-19T11:40:41.246Z,102163.19
2023-02-19T11:43:16.480Z,102164.06
2023-02-19T11:46:00.113Z,102166.41
2023-02-19T11:48:40.475Z,102164.31
2023-02-19T11:51:16.006Z,102165.06
2023-02-19T11:53:49.647Z,102161.34
2023-02-19T11:56:24.304Z,102162.19
2023-02-19T11:58:58.014Z,102157.81
2023-02-19T12:01:31.544Z,102149.91
2023-02-19T12:04:17.591Z,102170.69
2023-02-19T12:06:58.820Z,102170.22
2023-02-19T12:09:40.477Z,102172.88
2023-02-19T12:12:10.206Z,102176.44
2023-02-19T12:14:49.112Z,102181.66
2023-02-19T12:17:19.029Z,102195.59
2023-02-19T12:20:10.540Z,102201.88
2023-02-19T12:22:43.637Z,102206.84
2023-02-19T12:25:26.086Z,102199.78
2023-02-19T12:28:19.802Z,102203.06
2023-02-19T12:30:46.665Z,102196.19
2023-02-19T12:33:13.630Z,102195.81
2023-02-19T12:35:46.332Z,102196.19
2023-02-19T12:38:13.054Z,102193.78
2023-02-19T12:40:52.790Z,102198.34
2023-02-19T12:43:21.337Z,102194.94
2023-02-19T12:45:58.883Z,102191.63
2023-02-19T12:48:33.077Z,102193.69
2023-02-19T12:51:10.865Z,102198.06
2023-02-19T12:53:45.259Z,102194.53
2023-02-19T12:56:34.598Z,102198.16
2023-02-19T12:59:06.528Z,102195.69
2023-02-19T13:01:37.966Z,102192.38
2023-02-19T13:04:17.994Z,102211.34
2023-02-19T13:06:50.240Z,102200.72
2023-02-19T13:09:31.054Z,102200.66
2023-02-19T13:12:16.836Z,102210.31
2023-02-19T13:14:46.989Z,102211.09
2023-02-19T13:17:20.893Z,102206.69
2023-02-19T13:19:51.393Z,102210.97
2023-02-19T13:23:03.520Z,102202.31
2023-02-19T13:25:44.245Z,102202.50
2023-02-19T13:28:40.312Z,102216.31
2023-02-19T13:31:07.284Z,102210.94
2023-02-19T13:33:43.160Z,102205.75
2023-02-19T13:36:10.650Z,102220.63
2023-02-19T13:38:45.397Z,102216.44
2023-02-19T13:41:39.477Z,102217.38
2023-02-19T13:44:08.327Z,102213.31
2023-02-19T13:46:38.056Z,102220.16
2023-02-19T13:49:23.901Z,102230.56
2023-02-19T13:51:51.742Z,102233.22
2023-02-19T13:54:24.852Z,102245.81
2023-02-19T13:57:11.147Z,102238.69
2023-02-19T13:59:38.900Z,102245.28
2023-02-19T14:02:10.192Z,102257.09
2023-02-19T14:04:39.891Z,102259.47
2023-02-19T14:07:06.986Z,102271.78
2023-02-19T14:09:39.989Z,102265.44
2023-02-19T14:12:15.052Z,102263.44
2023-02-19T14:14:48.849Z,102271.97
2023-02-19T14:17:35.021Z,102275.44
2023-02-19T14:20:01.867Z,102279.00
2023-02-19T14:22:55.541Z,102278.06
2023-02-19T14:25:29.236Z,102284.16
2023-02-19T14:28:00.944Z,102282.50
2023-02-19T14:30:28.566Z,102275.53
2023-02-19T14:33:09.804Z,102285.25
2023-02-19T14:35:45.090Z,102278.31
2023-02-19T14:38:18.677Z,102296.59
2023-02-19T14:40:49.848Z,102285.38
2023-02-19T14:43:17.924Z,102281.81
2023-02-19T14:45:50.257Z,102281.69
2023-02-19T14:48:20.786Z,102284.47
2023-02-19T14:50:49.939Z,102289.69
2023-02-19T14:53:17.535Z,102289.75
2023-02-19T14:55:46.971Z,102284.53
2023-02-19T14:58:18.124Z,102280.75
2023-02-19T15:00:45.164Z,102271.25
2023-02-19T15:03:29.621Z,102277.50
2023-02-19T15:05:58.789Z,102269.66
2023-02-19T15:08:29.257Z,102265.50
2023-02-19T15:10:59.220Z,102259.59
2023-02-19T15:13:28.047Z,102253.47
2023-02-19T15:15:55.556Z,102251.94
2023-02-19T15:18:23.805Z,102236.13
2023-02-19T15:20:51.761Z,102234.41
2023-02-19T15:23:23.889Z,102232.69
2023-02-19T15:25:51.766Z,102223.97
2023-02-19T15:28:28.210Z,102222.09
2023-02-19T15:30:58.196Z,102218.53
2023-02-19T15:33:27.343Z,102220.22
2023-02-19T15:36:03.022Z,102208.06
2023-02-19T15:38:33.114Z,102208.09
2023-02-19T15:41:00.450Z,102208.88
2023-02-19T15:43:31.165Z,102205.34
2023-02-19T15:46:04.477Z,102208.06
2023-02-19T15:48:36.366Z,102214.94
2023-02-19T15:51:09.185Z,102214.09
2023-02-19T15:53:41.709Z,102220.09
2023-02-19T15:56:08.518Z,102222.75
2023-02-19T15:58:43.061Z,102227.19
2023-02-19T16:01:38.959Z,102240.13
2023-02-19T16:04:14.117Z,102245.91
2023-02-19T16:07:00.551Z,102246.88
2023-02-19T16:09:31.035Z,102259.91
2023-02-19T16:12:01.620Z,102252.00
2023-02-19T16:14:32.945Z,102259.97
2023-02-19T16:17:06.782Z,102263.13
2023-02-19T16:19:42.627Z,102280.50
2023-02-19T16:22:11.465Z,102279.53
2023-02-19T16:24:46.027Z,102280.63
2023-02-19T16:27:14.505Z,102285.50
2023-02-19T16:29:41.575Z,102276.09
2023-02-19T16:32:15.787Z,102280.16
2023-02-19T16:34:46.903Z,102285.25
2023-02-19T16:37:33.004Z,102276.53
2023-02-19T16:40:11.876Z,102289.63
2023-02-19T16:42:51.991Z,102294.09
2023-02-19T16:45:19.409Z,102306.00
2023-02-19T16:47:51.182Z,102316.22
2023-02-19T16:50:22.865Z,102323.22
2023-02-19T16:52:54.221Z,102336.84
2023-02-19T16:55:20.969Z,102340.28
2023-02-19T16:57:48.210Z,102347.31
2023-02-19T17:00:21.880Z,102347.31
2023-02-19T17:02:50.078Z,102352.44
2023-02-19T17:05:17.930Z,102368.84
2023-02-19T17:07:44.916Z,102362.69
2023-02-19T17:10:19.710Z,102380.91
2023-02-19T17:12:46.800Z,102378.31
2023-02-19T17:15:14.643Z,102371.28
2023-02-19T17:17:41.838Z,102372.13
2023-02-19T17:20:17.771Z,102368.84
2023-02-19T17:22:44.672Z,102372.94
2023-02-19T17:25:12.101Z,102368.63
2023-02-19T17:27:38.801Z,102362.53
2023-02-19T17:30:12.175Z,102371.13
2023-02-19T17:32:39.038Z,102379.78
2023-02-19T17:35:06.500Z,102374.41
2023-02-19T17:37:33.499Z,102365.50
2023-02-19T17:40:00.754Z,102377.78
2023-02-19T17:42:27.473Z,102375.31
2023-02-19T17:44:54.961Z,102380.88
2023-02-19T17:47:21.763Z,102393.81
2023-02-19T17:49:48.814Z,102380.81
2023-02-19T17:52:17.732Z,102380.88
2023-02-19T17:54:44.894Z,102385.09
2023-02-19T17:57:11.461Z,102396.19
2023-02-19T17:59:38.937Z,102401.06
2023-02-19T18:02:06.447Z,102402.72
2023-02-19T18:04:37.028Z,102406.16
2023-02-19T18:09:46.008Z,102417.13
2023-02-19T18:12:12.905Z,102423.31
2023-02-19T18:14:43.015Z,102429.69
2023-02-19T18:17:10.585Z,102426.78
2023-02-19T18:19:37.160Z,102427.00
2023-02-19T18:22:06.332Z,102415.72
2023-02-19T18:24:34.687Z,102422.63
2023-02-19T18:27:07.181Z,102423.41
2023-02-19T18:29:35.175Z,102429.84
2023-02-19T18:32:02.563Z,102433.28
2023-02-19T18:34:33.171Z,102434.06
2023-02-19T18:37:00.073Z,102442.59
2023-02-19T18:39:27.162Z,102438.03
2023-02-19T18:41:54.548Z,102436.44
2023-02-19T18:44:22.085Z,102433.03
2023-02-19T18:46:50.365Z,102432.91
2023-02-19T18:49:18.004Z,102434.56
2023-02-19T18:51:45.588Z,102450.38
2023-02-19T18:54:13.057Z,102455.28
2023-02-19T18:56:40.855Z,102460.69
2023-02-19T18:59:08.447Z,102458.09
2023-02-19T19:01:35.437Z,102457.06
2023-02-19T19:04:02.834Z,102462.84
2023-02-19T19:06:30.813Z,102459.47
2023-02-19T19:08:58.889Z,102455.09
2023-02-19T19:11:25.981Z,102448.59
2023-02-19T19:13:56.066Z,102460.56
2023-02-19T19:16:27.474Z,102480.41
2023-02-19T19:18:54.967Z,102474.41
2023-02-19T19:21:22.012Z,102489.16
2023-02-19T19:23:51.192Z,102479.63
2023-02-19T19:26:17.932Z,102472.84
2023-02-19T19:28:44.902Z,102476.06
2023-02-19T19:31:13.492Z,102478.63
2023-02-19T19:33:41.383Z,102470.69
2023-02-19T19:36:08.943Z,102478.47
2023-02-19T19:38:36.279Z,102474.25
2023-02-19T19:41:04.314Z,102463.84
2023-02-19T19:43:32.065Z,102460.28
2023-02-19T19:45:59.952Z,102467.19
2023-02-19T19:48:27.866Z,102461.88
2023-02-19T19:50:58.106Z,102456.63
2023-02-19T19:53:25.611Z,102460.19
2023-02-19T19:55:53.626Z,102469.59
2023-02-19T19:58:24.569Z,102470.31
2023-02-19T20:00:53.578Z,102484.44
2023-02-19T20:03:20.880Z,102478.28
2023-02-19T20:05:52.342Z,102486.09
2023-02-19T20:08:19.931Z,102486.47
2023-02-19T20:10:46.931Z,102487.88
2023-02-19T20:13:24.417Z,102498.06
2023-02-19T20:15:52.416Z,102480.63
2023-02-19T20:18:21.574Z,102482.38
2023-02-19T20:20:48.841Z,102492.00
2023-02-19T20:23:15.382Z,102491.09
2023-02-19T20:25:42.759Z,102486.72
2023-02-19T20:28:09.992Z,102477.19
2023-02-19T20:30:37.470Z,102489.38
2023-02-19T20:33:04.564Z,102496.41
2023-02-19T20:35:31.924Z,102496.50
2023-02-19T20:37:58.789Z,102489.31
2023-02-19T20:40:28.142Z,102497.00
2023-02-19T20:42:55.659Z,102511.25
2023-02-19T20:45:22.885Z,102513.47
2023-02-19T20:47:50.003Z,102518.38
2023-02-19T20:50:18.773Z,102524.41
2023-02-19T20:52:46.639Z,102523.56
2023-02-19T20:55:13.595Z,102524.28
2023-02-19T20:57:40.622Z,102535.09
2023-02-19T21:00:08.722Z,102517.66
2023-02-19T21:02:35.839Z,102511.53
2023-02-19T21:05:04.353Z,102512.34
2023-02-19T21:07:31.540Z,102498.44
2023-02-19T21:09:58.100Z,102500.00
2023-02-19T21:12:25.470Z,102513.72
2023-02-19T21:14:52.952Z,102507.69
2023-02-19T21:17:20.852Z,102508.31
2023-02-19T21:19:50.158Z,102504.66
2023-02-19T21:22:17.210Z,102507.88
2023-02-19T21:24:44.852Z,102501.09
2023-02-19T21:27:11.312Z,102507.78
2023-02-19T21:29:38.193Z,102516.41
2023-02-19T21:32:05.348Z,102523.13
2023-02-19T21:34:34.830Z,102533.53
2023-02-19T21:37:02.157Z,102533.63
2023-02-19T21:39:30.609Z,102537.56
2023-02-19T21:41:58.676Z,102537.38
2023-02-19T21:44:26.363Z,102525.13
2023-02-19T21:46:54.754Z,102513.91
2023-02-19T21:49:21.946Z,102514.41
2023-02-19T21:51:52.441Z,102511.91
2023-02-19T21:54:21.647Z,102498.75
2023-02-19T21:56:49.047Z,102499.53
2023-02-19T21:59:16.169Z,102504.38
2023-02-19T22:01:43.485Z,102501.84
2023-02-19T22:04:12.982Z,102512.88
2023-02-19T22:06:40.757Z,102511.34
2023-02-19T22:09:08.018Z,102516.06
2023-02-19T22:11:34.976Z,102513.47
2023-02-19T22:14:01.690Z,102516.06
2023-02-19T22:16:28.899Z,102520.25
2023-02-19T22:18:57.420Z,102520.34
2023-02-19T22:21:25.832Z,102522.69
2023-02-19T22:23:53.839Z,102512.53
2023-02-19T22:26:27.929Z,102508.91
2023-02-19T22:28:56.352Z,102509.13
2023-02-19T22:31:24.473Z,102514.09
2023-02-19T22:33:51.749Z,102519.75
2023-02-19T22:36:20.352Z,102515.50
2023-02-19T22:38:48.599Z,102513.56
2023-02-19T22:41:16.052Z,102513.50
2023-02-19T22:43:43.512Z,102515.28
2023-02-19T22:46:12.500Z,102534.22
2023-02-19T22:48:39.723Z,102522.94
2023-02-19T22:51:13.632Z,102523.94
2023-02-19T22:53:51.111Z,102523.75
2023-02-19T22:56:18.827Z,102535.00
2023-02-19T22:58:45.809Z,102523.63
2023-02-19T23:01:13.310Z,102520.88
2023-02-19T23:03:50.753Z,102517.66
2023-02-19T23:06:20.893Z,102509.63
2023-02-19T23:08:48.006Z,102519.75
2023-02-19T23:11:19.861Z,102512.78
2023-02-19T23:13:46.903Z,102518.09
2023-02-19T23:16:14.094Z,102517.97
2023-02-19T23:18:41.361Z,102521.38
2023-02-19T23:21:08.360Z,102514.22
2023-02-19T23:23:35.259Z,102508.78
2023-02-19T23:26:03.163Z,102512.31
2023-02-19T23:28:30.622Z,102508.78
2023-02-19T23:30:57.611Z,102505.38
2023-02-19T23:33:24.382Z,102506.19
2023-02-19T23:35:50.945Z,102501.84
2023-02-19T23:38:18.191Z,102506.19
2023-02-19T23:40:45.427Z,102501.97
2023-02-19T23:43:12.781Z,102496.66
2023-02-19T23:45:39.722Z,102486.41
2023-02-19T23:48:06.598Z,102487.94
2023-02-19T23:50:34.714Z,102488.81
2023-02-19T23:53:01.513Z,102473.78
2023-02-19T23:55:28.655Z,102476.94
2023-02-19T23:57:57.891Z,102475.16
